sensor_id;sensor_type;location;lat;lon;timestamp;P1;durP1;ratioP1;P2;durP2;ratioP2
66794;SDS011;53698;52.738;4.752;2022-09-09T00:01:23;14.85;;;8.75;;
66794;SDS011;53698;52.738;4.752;2022-09-09T00:04:08;15.93;;;9.07;;
66794;SDS011;53698;52.738;4.752;2022-09-09T00:06:50;12.82;;;8.20;;
66794;SDS011;53698;52.738;4.752;2022-09-09T00:09:39;14.00;;;8.63;;
66794;SDS011;53698;52.738;4.752;2022-09-09T00:12:11;14.60;;;9.98;;
66794;SDS011;53698;52.738;4.752;2022-09-09T00:15:00;14.85;;;9.98;;
66794;SDS011;53698;52.738;4.752;2022-09-09T00:23:08;17.00;;;10.18;;
66794;SDS011;53698;52.738;4.752;2022-09-09T00:25:44;14.90;;;9.45;;
66794;SDS011;53698;52.738;4.752;2022-09-09T00:28:18;16.00;;;10.45;;
66794;SDS011;53698;52.738;4.752;2022-09-09T00:30:45;20.05;;;10.93;;
66794;SDS011;53698;52.738;4.752;2022-09-09T00:33:16;22.13;;;11.63;;
66794;SDS011;53698;52.738;4.752;2022-09-09T00:35:48;17.20;;;10.82;;
66794;SDS011;53698;52.738;4.752;2022-09-09T00:38:28;15.68;;;11.82;;
66794;SDS011;53698;52.738;4.752;2022-09-09T00:43:55;18.55;;;10.57;;
66794;SDS011;53698;52.738;4.752;2022-09-09T00:46:40;18.27;;;10.27;;
66794;SDS011;53698;52.738;4.752;2022-09-09T00:49:22;16.10;;;10.88;;
66794;SDS011;53698;52.738;4.752;2022-09-09T00:59:46;16.77;;;11.07;;
66794;SDS011;53698;52.738;4.752;2022-09-09T01:02:16;17.25;;;11.48;;
66794;SDS011;53698;52.738;4.752;2022-09-09T01:04:50;16.90;;;11.38;;
66794;SDS011;53698;52.738;4.752;2022-09-09T01:07:19;14.63;;;10.68;;
66794;SDS011;53698;52.738;4.752;2022-09-09T01:09:51;15.27;;;10.45;;
66794;SDS011;53698;52.738;4.752;2022-09-09T01:12:35;18.67;;;11.90;;
66794;SDS011;53698;52.738;4.752;2022-09-09T01:20:18;17.80;;;11.77;;
66794;SDS011;53698;52.738;4.752;2022-09-09T01:23:59;16.08;;;12.73;;
66794;SDS011;53698;52.738;4.752;2022-09-09T01:28:45;17.55;;;12.13;;
66794;SDS011;53698;52.738;4.752;2022-09-09T01:31:18;19.38;;;12.77;;
66794;SDS011;53698;52.738;4.752;2022-09-09T01:33:47;16.77;;;12.38;;
66794;SDS011;53698;52.738;4.752;2022-09-09T01:36:16;21.63;;;13.35;;
66794;SDS011;53698;52.738;4.752;2022-09-09T01:38:49;18.77;;;13.35;;
66794;SDS011;53698;52.738;4.752;2022-09-09T01:41:15;18.60;;;11.90;;
66794;SDS011;53698;52.738;4.752;2022-09-09T01:43:59;15.38;;;13.38;;
66794;SDS011;53698;52.738;4.752;2022-09-09T01:46:26;20.13;;;14.60;;
66794;SDS011;53698;52.738;4.752;2022-09-09T01:48:55;18.50;;;13.85;;
66794;SDS011;53698;52.738;4.752;2022-09-09T01:51:22;18.70;;;14.13;;
66794;SDS011;53698;52.738;4.752;2022-09-09T01:53:48;23.83;;;15.55;;
66794;SDS011;53698;52.738;4.752;2022-09-09T02:02:11;24.55;;;15.50;;
66794;SDS011;53698;52.738;4.752;2022-09-09T02:04:49;19.60;;;14.45;;
66794;SDS011;53698;52.738;4.752;2022-09-09T02:07:31;21.20;;;15.02;;
66794;SDS011;53698;52.738;4.752;2022-09-09T02:10:02;20.55;;;15.23;;
66794;SDS011;53698;52.738;4.752;2022-09-09T02:12:37;19.30;;;14.38;;
66794;SDS011;53698;52.738;4.752;2022-09-09T02:15:18;21.88;;;14.73;;
66794;SDS011;53698;52.738;4.752;2022-09-09T02:17:49;18.15;;;12.95;;
66794;SDS011;53698;52.738;4.752;2022-09-09T02:20:17;20.02;;;13.95;;
66794;SDS011;53698;52.738;4.752;2022-09-09T02:22:49;18.58;;;13.55;;
66794;SDS011;53698;52.738;4.752;2022-09-09T02:25:18;21.20;;;14.60;;
66794;SDS011;53698;52.738;4.752;2022-09-09T02:27:47;22.25;;;15.15;;
66794;SDS011;53698;52.738;4.752;2022-09-09T02:30:16;22.65;;;14.93;;
66794;SDS011;53698;52.738;4.752;2022-09-09T02:32:48;20.38;;;15.32;;
66794;SDS011;53698;52.738;4.752;2022-09-09T02:35:19;20.77;;;15.30;;
66794;SDS011;53698;52.738;4.752;2022-09-09T02:37:49;22.80;;;15.63;;
66794;SDS011;53698;52.738;4.752;2022-09-09T02:40:18;20.58;;;15.20;;
66794;SDS011;53698;52.738;4.752;2022-09-09T02:42:48;25.05;;;17.05;;
66794;SDS011;53698;52.738;4.752;2022-09-09T02:45:16;27.73;;;16.80;;
66794;SDS011;53698;52.738;4.752;2022-09-09T02:58:19;28.10;;;19.02;;
66794;SDS011;53698;52.738;4.752;2022-09-09T03:00:53;25.50;;;18.27;;
66794;SDS011;53698;52.738;4.752;2022-09-09T03:03:22;28.67;;;19.67;;
66794;SDS011;53698;52.738;4.752;2022-09-09T03:05:49;29.92;;;20.95;;
66794;SDS011;53698;52.738;4.752;2022-09-09T03:08:15;30.70;;;22.67;;
66794;SDS011;53698;52.738;4.752;2022-09-09T03:10:41;27.98;;;20.85;;
66794;SDS011;53698;52.738;4.752;2022-09-09T03:13:07;26.50;;;19.60;;
66794;SDS011;53698;52.738;4.752;2022-09-09T03:15:37;25.58;;;19.08;;
66794;SDS011;53698;52.738;4.752;2022-09-09T03:18:04;29.45;;;21.50;;
66794;SDS011;53698;52.738;4.752;2022-09-09T03:20:29;39.10;;;23.63;;
66794;SDS011;53698;52.738;4.752;2022-09-09T03:22:56;36.30;;;25.02;;
66794;SDS011;53698;52.738;4.752;2022-09-09T03:25:22;36.92;;;25.50;;
66794;SDS011;53698;52.738;4.752;2022-09-09T03:27:53;41.53;;;30.13;;
66794;SDS011;53698;52.738;4.752;2022-09-09T03:30:21;52.45;;;32.17;;
66794;SDS011;53698;52.738;4.752;2022-09-09T03:32:48;51.00;;;33.58;;
66794;SDS011;53698;52.738;4.752;2022-09-09T03:35:13;49.05;;;33.50;;
66794;SDS011;53698;52.738;4.752;2022-09-09T03:37:40;52.47;;;34.60;;
66794;SDS011;53698;52.738;4.752;2022-09-09T03:40:07;55.15;;;35.85;;
66794;SDS011;53698;52.738;4.752;2022-09-09T03:42:35;52.05;;;35.33;;
66794;SDS011;53698;52.738;4.752;2022-09-09T03:45:02;53.58;;;35.50;;
66794;SDS011;53698;52.738;4.752;2022-09-09T03:47:29;50.10;;;34.50;;
66794;SDS011;53698;52.738;4.752;2022-09-09T03:50:02;57.95;;;36.63;;
66794;SDS011;53698;52.738;4.752;2022-09-09T03:52:29;50.20;;;35.03;;
66794;SDS011;53698;52.738;4.752;2022-09-09T03:54:55;50.33;;;34.60;;
66794;SDS011;53698;52.738;4.752;2022-09-09T03:57:22;51.20;;;36.42;;
66794;SDS011;53698;52.738;4.752;2022-09-09T03:59:47;47.88;;;33.33;;
66794;SDS011;53698;52.738;4.752;2022-09-09T04:02:13;48.92;;;36.05;;
66794;SDS011;53698;52.738;4.752;2022-09-09T04:04:39;49.55;;;34.40;;
66794;SDS011;53698;52.738;4.752;2022-09-09T04:07:04;47.80;;;36.53;;
66794;SDS011;53698;52.738;4.752;2022-09-09T04:09:32;55.83;;;38.83;;
66794;SDS011;53698;52.738;4.752;2022-09-09T04:11:57;48.40;;;36.00;;
66794;SDS011;53698;52.738;4.752;2022-09-09T04:14:23;49.22;;;36.60;;
66794;SDS011;53698;52.738;4.752;2022-09-09T04:16:48;51.25;;;36.83;;
66794;SDS011;53698;52.738;4.752;2022-09-09T04:19:14;49.83;;;36.75;;
66794;SDS011;53698;52.738;4.752;2022-09-09T04:21:41;49.85;;;34.08;;
66794;SDS011;53698;52.738;4.752;2022-09-09T04:24:07;46.92;;;34.95;;
66794;SDS011;53698;52.738;4.752;2022-09-09T04:26:33;48.70;;;35.22;;
66794;SDS011;53698;52.738;4.752;2022-09-09T04:28:59;44.70;;;33.70;;
66794;SDS011;53698;52.738;4.752;2022-09-09T04:31:25;41.10;;;33.00;;
66794;SDS011;53698;52.738;4.752;2022-09-09T04:33:54;42.50;;;34.35;;
66794;SDS011;53698;52.738;4.752;2022-09-09T04:36:20;42.40;;;33.13;;
66794;SDS011;53698;52.738;4.752;2022-09-09T04:38:47;43.75;;;32.10;;
66794;SDS011;53698;52.738;4.752;2022-09-09T04:41:14;43.00;;;32.90;;
66794;SDS011;53698;52.738;4.752;2022-09-09T04:43:43;38.58;;;29.85;;
66794;SDS011;53698;52.738;4.752;2022-09-09T04:46:08;39.10;;;30.10;;
66794;SDS011;53698;52.738;4.752;2022-09-09T04:48:34;37.58;;;27.95;;
66794;SDS011;53698;52.738;4.752;2022-09-09T04:51:02;39.22;;;27.80;;
66794;SDS011;53698;52.738;4.752;2022-09-09T04:53:30;33.55;;;26.73;;
66794;SDS011;53698;52.738;4.752;2022-09-09T04:56:06;32.47;;;26.40;;
66794;SDS011;53698;52.738;4.752;2022-09-09T04:58:57;37.22;;;27.05;;
66794;SDS011;53698;52.738;4.752;2022-09-09T05:01:33;40.10;;;27.85;;
66794;SDS011;53698;52.738;4.752;2022-09-09T05:04:02;37.83;;;28.55;;
66794;SDS011;53698;52.738;4.752;2022-09-09T05:06:28;39.83;;;27.50;;
66794;SDS011;53698;52.738;4.752;2022-09-09T05:08:58;42.33;;;28.67;;
66794;SDS011;53698;52.738;4.752;2022-09-09T05:11:27;34.55;;;25.77;;
66794;SDS011;53698;52.738;4.752;2022-09-09T05:13:59;34.80;;;26.73;;
66794;SDS011;53698;52.738;4.752;2022-09-09T05:16:26;34.92;;;26.25;;
66794;SDS011;53698;52.738;4.752;2022-09-09T05:18:52;41.05;;;26.17;;
66794;SDS011;53698;52.738;4.752;2022-09-09T05:21:18;38.13;;;25.77;;
66794;SDS011;53698;52.738;4.752;2022-09-09T05:23:45;37.72;;;25.83;;
66794;SDS011;53698;52.738;4.752;2022-09-09T05:26:13;35.03;;;25.70;;
66794;SDS011;53698;52.738;4.752;2022-09-09T05:28:39;32.30;;;24.63;;
66794;SDS011;53698;52.738;4.752;2022-09-09T05:31:06;31.42;;;25.00;;
66794;SDS011;53698;52.738;4.752;2022-09-09T05:33:34;36.58;;;25.92;;
66794;SDS011;53698;52.738;4.752;2022-09-09T05:36:01;35.80;;;24.02;;
66794;SDS011;53698;52.738;4.752;2022-09-09T05:38:29;32.60;;;23.55;;
66794;SDS011;53698;52.738;4.752;2022-09-09T05:40:56;30.02;;;22.63;;
66794;SDS011;53698;52.738;4.752;2022-09-09T05:43:22;32.20;;;23.05;;
66794;SDS011;53698;52.738;4.752;2022-09-09T05:45:57;32.88;;;23.20;;
66794;SDS011;53698;52.738;4.752;2022-09-09T05:48:34;33.42;;;21.55;;
66794;SDS011;53698;52.738;4.752;2022-09-09T05:51:01;28.63;;;21.70;;
66794;SDS011;53698;52.738;4.752;2022-09-09T05:53:27;30.17;;;21.70;;
66794;SDS011;53698;52.738;4.752;2022-09-09T05:56:01;25.30;;;19.35;;
66794;SDS011;53698;52.738;4.752;2022-09-09T05:58:33;28.85;;;19.63;;
66794;SDS011;53698;52.738;4.752;2022-09-09T06:01:10;31.58;;;19.02;;
66794;SDS011;53698;52.738;4.752;2022-09-09T06:03:39;26.77;;;18.10;;
66794;SDS011;53698;52.738;4.752;2022-09-09T06:06:06;22.33;;;17.48;;
66794;SDS011;53698;52.738;4.752;2022-09-09T06:08:33;22.75;;;16.23;;
66794;SDS011;53698;52.738;4.752;2022-09-09T06:11:03;19.92;;;14.95;;
66794;SDS011;53698;52.738;4.752;2022-09-09T06:13:30;16.45;;;13.05;;
66794;SDS011;53698;52.738;4.752;2022-09-09T06:15:56;19.80;;;13.55;;
66794;SDS011;53698;52.738;4.752;2022-09-09T06:18:22;18.65;;;11.80;;
66794;SDS011;53698;52.738;4.752;2022-09-09T06:20:54;18.63;;;12.38;;
66794;SDS011;53698;52.738;4.752;2022-09-09T06:23:20;18.58;;;11.18;;
66794;SDS011;53698;52.738;4.752;2022-09-09T06:25:46;15.57;;;10.43;;
66794;SDS011;53698;52.738;4.752;2022-09-09T06:28:12;23.48;;;10.73;;
66794;SDS011;53698;52.738;4.752;2022-09-09T06:30:38;16.08;;;9.77;;
66794;SDS011;53698;52.738;4.752;2022-09-09T06:33:05;16.67;;;10.15;;
66794;SDS011;53698;52.738;4.752;2022-09-09T06:35:30;13.60;;;8.57;;
66794;SDS011;53698;52.738;4.752;2022-09-09T06:37:55;13.48;;;9.35;;
66794;SDS011;53698;52.738;4.752;2022-09-09T06:40:22;15.52;;;9.35;;
66794;SDS011;53698;52.738;4.752;2022-09-09T06:42:47;16.13;;;7.88;;
66794;SDS011;53698;52.738;4.752;2022-09-09T06:45:39;11.45;;;7.30;;
66794;SDS011;53698;52.738;4.752;2022-09-09T06:48:04;12.73;;;6.82;;
66794;SDS011;53698;52.738;4.752;2022-09-09T06:50:29;11.80;;;6.95;;
66794;SDS011;53698;52.738;4.752;2022-09-09T06:52:55;16.63;;;7.43;;
66794;SDS011;53698;52.738;4.752;2022-09-09T06:55:20;11.68;;;6.53;;
66794;SDS011;53698;52.738;4.752;2022-09-09T06:57:46;17.40;;;7.15;;
66794;SDS011;53698;52.738;4.752;2022-09-09T07:00:15;18.45;;;7.35;;
66794;SDS011;53698;52.738;4.752;2022-09-09T07:02:42;14.85;;;6.43;;
66794;SDS011;53698;52.738;4.752;2022-09-09T07:05:08;13.48;;;6.60;;
66794;SDS011;53698;52.738;4.752;2022-09-09T07:07:34;7.97;;;5.45;;
66794;SDS011;53698;52.738;4.752;2022-09-09T07:09:59;10.57;;;5.85;;
66794;SDS011;53698;52.738;4.752;2022-09-09T07:12:25;10.25;;;5.03;;
66794;SDS011;53698;52.738;4.752;2022-09-09T07:14:55;13.43;;;5.63;;
66794;SDS011;53698;52.738;4.752;2022-09-09T07:17:21;15.70;;;5.85;;
66794;SDS011;53698;52.738;4.752;2022-09-09T07:19:46;12.50;;;6.38;;
66794;SDS011;53698;52.738;4.752;2022-09-09T07:22:14;12.10;;;6.05;;
66794;SDS011;53698;52.738;4.752;2022-09-09T07:24:41;10.48;;;6.07;;
66794;SDS011;53698;52.738;4.752;2022-09-09T07:27:06;14.80;;;6.55;;
66794;SDS011;53698;52.738;4.752;2022-09-09T07:29:31;13.63;;;6.72;;
66794;SDS011;53698;52.738;4.752;2022-09-09T07:31:57;12.75;;;6.57;;
66794;SDS011;53698;52.738;4.752;2022-09-09T07:34:28;11.07;;;7.05;;
66794;SDS011;53698;52.738;4.752;2022-09-09T07:36:55;12.07;;;7.55;;
66794;SDS011;53698;52.738;4.752;2022-09-09T07:39:22;14.57;;;7.28;;
66794;SDS011;53698;52.738;4.752;2022-09-09T07:41:51;17.65;;;8.00;;
66794;SDS011;53698;52.738;4.752;2022-09-09T07:44:21;14.73;;;7.80;;
66794;SDS011;53698;52.738;4.752;2022-09-09T07:46:53;16.40;;;7.18;;
66794;SDS011;53698;52.738;4.752;2022-09-09T07:49:24;12.40;;;6.80;;
66794;SDS011;53698;52.738;4.752;2022-09-09T07:51:49;12.95;;;7.28;;
66794;SDS011;53698;52.738;4.752;2022-09-09T07:54:17;12.00;;;7.13;;
66794;SDS011;53698;52.738;4.752;2022-09-09T07:56:47;11.45;;;8.48;;
66794;SDS011;53698;52.738;4.752;2022-09-09T07:59:13;14.15;;;7.95;;
66794;SDS011;53698;52.738;4.752;2022-09-09T08:01:41;14.45;;;7.75;;
66794;SDS011;53698;52.738;4.752;2022-09-09T08:04:11;16.35;;;8.30;;
66794;SDS011;53698;52.738;4.752;2022-09-09T08:06:44;15.00;;;7.97;;
66794;SDS011;53698;52.738;4.752;2022-09-09T08:09:16;11.75;;;7.65;;
66794;SDS011;53698;52.738;4.752;2022-09-09T08:11:42;10.65;;;7.28;;
66794;SDS011;53698;52.738;4.752;2022-09-09T08:14:09;15.07;;;6.88;;
66794;SDS011;53698;52.738;4.752;2022-09-09T08:16:37;15.27;;;8.00;;
66794;SDS011;53698;52.738;4.752;2022-09-09T08:19:05;17.85;;;7.97;;
66794;SDS011;53698;52.738;4.752;2022-09-09T08:21:33;12.68;;;7.95;;
66794;SDS011;53698;52.738;4.752;2022-09-09T08:24:01;14.07;;;7.75;;
66794;SDS011;53698;52.738;4.752;2022-09-09T08:26:32;14.63;;;7.03;;
66794;SDS011;53698;52.738;4.752;2022-09-09T08:29:01;9.63;;;6.68;;
66794;SDS011;53698;52.738;4.752;2022-09-09T08:31:29;11.38;;;7.15;;
66794;SDS011;53698;52.738;4.752;2022-09-09T08:33:57;14.05;;;7.55;;
66794;SDS011;53698;52.738;4.752;2022-09-09T08:36:29;12.52;;;6.38;;
66794;SDS011;53698;52.738;4.752;2022-09-09T08:38:57;10.82;;;6.85;;
66794;SDS011;53698;52.738;4.752;2022-09-09T08:47:28;14.00;;;6.80;;
66794;SDS011;53698;52.738;4.752;2022-09-09T08:50:12;15.30;;;6.03;;
66794;SDS011;53698;52.738;4.752;2022-09-09T08:52:52;12.85;;;6.50;;
66794;SDS011;53698;52.738;4.752;2022-09-09T08:58:10;13.93;;;6.78;;
66794;SDS011;53698;52.738;4.752;2022-09-09T09:00:42;15.23;;;6.03;;
66794;SDS011;53698;52.738;4.752;2022-09-09T09:08:45;15.32;;;6.60;;
66794;SDS011;53698;52.738;4.752;2022-09-09T09:13:52;12.13;;;6.10;;
66794;SDS011;53698;52.738;4.752;2022-09-09T09:16:38;15.93;;;6.50;;
66794;SDS011;53698;52.738;4.752;2022-09-09T09:19:18;15.98;;;5.78;;
66794;SDS011;53698;52.738;4.752;2022-09-09T09:24:53;11.68;;;6.32;;
66794;SDS011;53698;52.738;4.752;2022-09-09T09:27:30;16.73;;;6.90;;
66794;SDS011;53698;52.738;4.752;2022-09-09T09:29:59;19.45;;;5.90;;
66794;SDS011;53698;52.738;4.752;2022-09-09T09:32:28;12.35;;;5.90;;
66794;SDS011;53698;52.738;4.752;2022-09-09T09:34:58;11.75;;;5.85;;
66794;SDS011;53698;52.738;4.752;2022-09-09T09:37:27;13.30;;;5.63;;
66794;SDS011;53698;52.738;4.752;2022-09-09T09:40:07;14.50;;;6.35;;
66794;SDS011;53698;52.738;4.752;2022-09-09T09:42:38;11.77;;;5.63;;
66794;SDS011;53698;52.738;4.752;2022-09-09T09:48:04;13.65;;;5.25;;
66794;SDS011;53698;52.738;4.752;2022-09-09T09:50:35;15.48;;;5.15;;
66794;SDS011;53698;52.738;4.752;2022-09-09T09:53:27;20.17;;;5.70;;
66794;SDS011;53698;52.738;4.752;2022-09-09T09:56:01;9.60;;;5.10;;
66794;SDS011;53698;52.738;4.752;2022-09-09T09:58:33;12.32;;;5.55;;
66794;SDS011;53698;52.738;4.752;2022-09-09T10:03:58;13.70;;;5.30;;
66794;SDS011;53698;52.738;4.752;2022-09-09T10:06:33;9.93;;;5.35;;
66794;SDS011;53698;52.738;4.752;2022-09-09T10:09:01;13.02;;;5.00;;
66794;SDS011;53698;52.738;4.752;2022-09-09T10:19:29;14.38;;;4.90;;
66794;SDS011;53698;52.738;4.752;2022-09-09T10:28:06;11.73;;;4.55;;
66794;SDS011;53698;52.738;4.752;2022-09-09T10:30:47;11.23;;;4.43;;
66794;SDS011;53698;52.738;4.752;2022-09-09T10:33:33;12.48;;;5.28;;
66794;SDS011;53698;52.738;4.752;2022-09-09T10:36:12;7.70;;;4.10;;
66794;SDS011;53698;52.738;4.752;2022-09-09T10:38:46;10.63;;;3.97;;
66794;SDS011;53698;52.738;4.752;2022-09-09T10:41:15;13.85;;;5.15;;
66794;SDS011;53698;52.738;4.752;2022-09-09T10:43:56;15.70;;;4.10;;
66794;SDS011;53698;52.738;4.752;2022-09-09T10:49:42;10.43;;;3.90;;
66794;SDS011;53698;52.738;4.752;2022-09-09T10:52:30;13.57;;;4.55;;
66794;SDS011;53698;52.738;4.752;2022-09-09T10:55:03;11.75;;;4.32;;
66794;SDS011;53698;52.738;4.752;2022-09-09T10:57:43;8.18;;;3.45;;
66794;SDS011;53698;52.738;4.752;2022-09-09T11:03:16;13.25;;;3.47;;
66794;SDS011;53698;52.738;4.752;2022-09-09T11:05:51;8.57;;;3.35;;
66794;SDS011;53698;52.738;4.752;2022-09-09T11:08:23;9.48;;;2.67;;
66794;SDS011;53698;52.738;4.752;2022-09-09T11:13:49;10.20;;;3.50;;
66794;SDS011;53698;52.738;4.752;2022-09-09T11:22:01;10.90;;;4.13;;
66794;SDS011;53698;52.738;4.752;2022-09-09T11:27:17;12.68;;;3.85;;
66794;SDS011;53698;52.738;4.752;2022-09-09T11:29:59;10.48;;;3.75;;
66794;SDS011;53698;52.738;4.752;2022-09-09T11:41:05;9.52;;;3.25;;
66794;SDS011;53698;52.738;4.752;2022-09-09T11:43:40;7.35;;;3.00;;
66794;SDS011;53698;52.738;4.752;2022-09-09T11:46:07;10.45;;;2.70;;
66794;SDS011;53698;52.738;4.752;2022-09-09T11:48:34;10.90;;;3.25;;
66794;SDS011;53698;52.738;4.752;2022-09-09T11:51:03;8.48;;;2.88;;
66794;SDS011;53698;52.738;4.752;2022-09-09T11:53:34;11.15;;;2.75;;
66794;SDS011;53698;52.738;4.752;2022-09-09T11:56:09;9.52;;;3.00;;
66794;SDS011;53698;52.738;4.752;2022-09-09T11:58:39;9.13;;;3.40;;
66794;SDS011;53698;52.738;4.752;2022-09-09T12:01:14;11.18;;;3.50;;
66794;SDS011;53698;52.738;4.752;2022-09-09T12:09:18;8.57;;;2.85;;
66794;SDS011;53698;52.738;4.752;2022-09-09T12:11:52;6.25;;;2.42;;
66794;SDS011;53698;52.738;4.752;2022-09-09T12:14:22;6.78;;;2.60;;
66794;SDS011;53698;52.738;4.752;2022-09-09T12:17:09;11.63;;;2.47;;
66794;SDS011;53698;52.738;4.752;2022-09-09T12:19:43;7.53;;;3.20;;
66794;SDS011;53698;52.738;4.752;2022-09-09T12:25:02;10.48;;;6.00;;
66794;SDS011;53698;52.738;4.752;2022-09-09T12:28:24;14.77;;;6.40;;
66794;SDS011;53698;52.738;4.752;2022-09-09T12:30:34;16.85;;;8.30;;
66794;SDS011;53698;52.738;4.752;2022-09-09T12:33:10;16.65;;;8.55;;
66794;SDS011;53698;52.738;4.752;2022-09-09T12:35:38;15.45;;;8.75;;
66794;SDS011;53698;52.738;4.752;2022-09-09T12:38:06;15.27;;;8.40;;
66794;SDS011;53698;52.738;4.752;2022-09-09T12:40:40;14.23;;;7.50;;
66794;SDS011;53698;52.738;4.752;2022-09-09T12:43:19;13.27;;;5.53;;
66794;SDS011;53698;52.738;4.752;2022-09-09T12:45:47;9.65;;;3.75;;
66794;SDS011;53698;52.738;4.752;2022-09-09T12:48:15;8.88;;;3.55;;
66794;SDS011;53698;52.738;4.752;2022-09-09T12:50:48;5.82;;;2.97;;
66794;SDS011;53698;52.738;4.752;2022-09-09T12:53:21;9.30;;;3.60;;
66794;SDS011;53698;52.738;4.752;2022-09-09T12:55:52;8.65;;;2.72;;
66794;SDS011;53698;52.738;4.752;2022-09-09T12:58:30;9.00;;;2.85;;
66794;SDS011;53698;52.738;4.752;2022-09-09T13:01:00;7.38;;;3.15;;
66794;SDS011;53698;52.738;4.752;2022-09-09T13:03:29;4.85;;;2.58;;
66794;SDS011;53698;52.738;4.752;2022-09-09T13:05:57;5.90;;;2.25;;
66794;SDS011;53698;52.738;4.752;2022-09-09T13:08:34;7.43;;;2.50;;
66794;SDS011;53698;52.738;4.752;2022-09-09T13:11:00;5.63;;;2.67;;
66794;SDS011;53698;52.738;4.752;2022-09-09T13:13:31;5.55;;;2.85;;
66794;SDS011;53698;52.738;4.752;2022-09-09T13:16:00;6.03;;;2.50;;
66794;SDS011;53698;52.738;4.752;2022-09-09T13:18:32;6.80;;;2.45;;
66794;SDS011;53698;52.738;4.752;2022-09-09T13:20:59;5.70;;;2.50;;
66794;SDS011;53698;52.738;4.752;2022-09-09T13:23:26;6.30;;;3.28;;
66794;SDS011;53698;52.738;4.752;2022-09-09T13:25:54;6.85;;;2.72;;
66794;SDS011;53698;52.738;4.752;2022-09-09T13:28:22;7.72;;;2.90;;
66794;SDS011;53698;52.738;4.752;2022-09-09T13:30:59;7.10;;;2.50;;
66794;SDS011;53698;52.738;4.752;2022-09-09T13:33:34;5.30;;;2.28;;
66794;SDS011;53698;52.738;4.752;2022-09-09T13:36:05;3.47;;;1.80;;
66794;SDS011;53698;52.738;4.752;2022-09-09T13:38:54;5.85;;;1.70;;
66794;SDS011;53698;52.738;4.752;2022-09-09T13:42:03;4.55;;;1.80;;
66794;SDS011;53698;52.738;4.752;2022-09-09T13:44:17;6.15;;;1.52;;
66794;SDS011;53698;52.738;4.752;2022-09-09T13:49:29;5.32;;;1.58;;
66794;SDS011;53698;52.738;4.752;2022-09-09T13:54:36;3.08;;;1.42;;
66794;SDS011;53698;52.738;4.752;2022-09-09T13:57:02;4.40;;;1.25;;
66794;SDS011;53698;52.738;4.752;2022-09-09T13:59:29;2.63;;;1.55;;
66794;SDS011;53698;52.738;4.752;2022-09-09T14:01:55;2.70;;;1.17;;
66794;SDS011;53698;52.738;4.752;2022-09-09T14:04:21;3.88;;;1.40;;
66794;SDS011;53698;52.738;4.752;2022-09-09T14:06:46;3.75;;;1.40;;
66794;SDS011;53698;52.738;4.752;2022-09-09T14:09:18;4.03;;;1.55;;
66794;SDS011;53698;52.738;4.752;2022-09-09T14:11:44;5.07;;;1.95;;
66794;SDS011;53698;52.738;4.752;2022-09-09T14:14:10;5.85;;;2.28;;
66794;SDS011;53698;52.738;4.752;2022-09-09T14:16:36;4.45;;;1.88;;
66794;SDS011;53698;52.738;4.752;2022-09-09T14:19:02;5.68;;;1.80;;
66794;SDS011;53698;52.738;4.752;2022-09-09T14:21:28;6.65;;;2.10;;
66794;SDS011;53698;52.738;4.752;2022-09-09T14:23:53;2.42;;;1.73;;
66794;SDS011;53698;52.738;4.752;2022-09-09T14:26:19;4.25;;;1.90;;
66794;SDS011;53698;52.738;4.752;2022-09-09T14:28:48;3.88;;;2.10;;
66794;SDS011;53698;52.738;4.752;2022-09-09T14:31:15;8.63;;;2.45;;
66794;SDS011;53698;52.738;4.752;2022-09-09T14:33:42;7.43;;;3.38;;
66794;SDS011;53698;52.738;4.752;2022-09-09T14:36:08;8.80;;;3.83;;
66794;SDS011;53698;52.738;4.752;2022-09-09T14:38:34;9.18;;;4.40;;
66794;SDS011;53698;52.738;4.752;2022-09-09T14:41:11;9.73;;;5.70;;
66794;SDS011;53698;52.738;4.752;2022-09-09T14:43:38;12.48;;;7.32;;
66794;SDS011;53698;52.738;4.752;2022-09-09T14:46:08;9.98;;;7.60;;
66794;SDS011;53698;52.738;4.752;2022-09-09T14:48:35;11.90;;;8.73;;
66794;SDS011;53698;52.738;4.752;2022-09-09T14:53:37;19.23;;;12.52;;
66794;SDS011;53698;52.738;4.752;2022-09-09T14:56:17;20.73;;;12.05;;
66794;SDS011;53698;52.738;4.752;2022-09-09T14:58:44;18.92;;;12.27;;
66794;SDS011;53698;52.738;4.752;2022-09-09T15:01:17;20.48;;;14.05;;
66794;SDS011;53698;52.738;4.752;2022-09-09T15:03:49;14.38;;;11.95;;
66794;SDS011;53698;52.738;4.752;2022-09-09T15:06:16;13.32;;;11.93;;
66794;SDS011;53698;52.738;4.752;2022-09-09T15:08:43;13.30;;;9.95;;
66794;SDS011;53698;52.738;4.752;2022-09-09T15:11:10;13.60;;;9.48;;
66794;SDS011;53698;52.738;4.752;2022-09-09T15:13:37;12.75;;;8.10;;
66794;SDS011;53698;52.738;4.752;2022-09-09T15:16:12;10.40;;;6.65;;
66794;SDS011;53698;52.738;4.752;2022-09-09T15:18:42;13.10;;;6.95;;
66794;SDS011;53698;52.738;4.752;2022-09-09T15:21:13;10.93;;;6.63;;
66794;SDS011;53698;52.738;4.752;2022-09-09T15:23:40;9.70;;;6.00;;
66794;SDS011;53698;52.738;4.752;2022-09-09T15:26:06;10.93;;;5.65;;
66794;SDS011;53698;52.738;4.752;2022-09-09T15:28:32;11.20;;;6.05;;
66794;SDS011;53698;52.738;4.752;2022-09-09T15:31:10;10.27;;;5.85;;
66794;SDS011;53698;52.738;4.752;2022-09-09T15:33:37;11.00;;;5.88;;
66794;SDS011;53698;52.738;4.752;2022-09-09T15:36:12;11.05;;;5.65;;
66794;SDS011;53698;52.738;4.752;2022-09-09T15:38:42;12.20;;;4.73;;
66794;SDS011;53698;52.738;4.752;2022-09-09T15:41:09;6.35;;;4.70;;
66794;SDS011;53698;52.738;4.752;2022-09-09T15:43:35;7.75;;;4.93;;
66794;SDS011;53698;52.738;4.752;2022-09-09T15:46:05;10.73;;;6.35;;
66794;SDS011;53698;52.738;4.752;2022-09-09T15:48:45;9.98;;;6.10;;
66794;SDS011;53698;52.738;4.752;2022-09-09T15:51:11;8.32;;;5.30;;
66794;SDS011;53698;52.738;4.752;2022-09-09T15:53:39;10.98;;;6.72;;
66794;SDS011;53698;52.738;4.752;2022-09-09T15:56:05;15.77;;;7.25;;
66794;SDS011;53698;52.738;4.752;2022-09-09T15:58:31;13.98;;;7.40;;
66794;SDS011;53698;52.738;4.752;2022-09-09T16:01:07;12.80;;;6.78;;
66794;SDS011;53698;52.738;4.752;2022-09-09T16:03:34;11.77;;;6.47;;
66794;SDS011;53698;52.738;4.752;2022-09-09T16:06:00;11.88;;;6.90;;
66794;SDS011;53698;52.738;4.752;2022-09-09T16:08:31;10.68;;;6.13;;
66794;SDS011;53698;52.738;4.752;2022-09-09T16:11:11;10.52;;;4.80;;
66794;SDS011;53698;52.738;4.752;2022-09-09T16:13:40;13.55;;;6.50;;
66794;SDS011;53698;52.738;4.752;2022-09-09T16:16:07;10.07;;;5.70;;
66794;SDS011;53698;52.738;4.752;2022-09-09T16:18:35;12.32;;;6.10;;
66794;SDS011;53698;52.738;4.752;2022-09-09T16:21:01;7.95;;;4.80;;
66794;SDS011;53698;52.738;4.752;2022-09-09T16:23:26;10.10;;;5.10;;
66794;SDS011;53698;52.738;4.752;2022-09-09T16:25:53;10.60;;;5.60;;
66794;SDS011;53698;52.738;4.752;2022-09-09T16:28:19;12.32;;;5.07;;
66794;SDS011;53698;52.738;4.752;2022-09-09T16:30:45;11.40;;;5.82;;
66794;SDS011;53698;52.738;4.752;2022-09-09T16:33:10;9.27;;;4.65;;
66794;SDS011;53698;52.738;4.752;2022-09-09T16:35:36;9.07;;;5.90;;
66794;SDS011;53698;52.738;4.752;2022-09-09T16:38:02;10.55;;;5.97;;
66794;SDS011;53698;52.738;4.752;2022-09-09T16:40:27;11.75;;;5.32;;
66794;SDS011;53698;52.738;4.752;2022-09-09T16:42:53;11.07;;;5.50;;
66794;SDS011;53698;52.738;4.752;2022-09-09T16:45:18;11.98;;;5.78;;
66794;SDS011;53698;52.738;4.752;2022-09-09T16:47:43;9.75;;;4.95;;
66794;SDS011;53698;52.738;4.752;2022-09-09T16:50:09;10.02;;;5.15;;
66794;SDS011;53698;52.738;4.752;2022-09-09T16:52:34;11.30;;;5.43;;